Terminal Aerodrome Forecast
Issued by NWS Bismarck, ND

Home | Current Version | Previous Version | Graphics & Text | Print | Product List | Glossary On
Versions: 1 2 3 4 5 6 7 8 9 10 11 12 13 14 15 16 17 18 19 20 21 22 23 24 25
000
FTUS43 KBIS 180500
TAFBIS
TAF
KBIS 180521Z 1806/1906 30007KT P6SM BKN025 OVC035
     FM180800 28006KT P6SM SCT025
     FM181100 26006KT P6SM SCT120
     FM182000 29015KT P6SM -SHSN OVC030
     FM182200 32015G25KT P6SM -SHSN BKN018 OVC030=

USA.gov is the U.S. government's official web portal to all federal, state and local government web resources and services.